createdAt,value
2022-08-28T00:00:35.374Z,50.24
2022-08-28T00:03:43.323Z,50.31
2022-08-28T00:06:45.989Z,50.20
2022-08-28T00:09:51.530Z,49.77
2022-08-28T00:12:57.422Z,50.01
2022-08-28T00:16:01.109Z,50.91
2022-08-28T00:19:04.013Z,52.09
2022-08-28T00:22:07.399Z,53.40
2022-08-28T00:25:11.566Z,54.53
2022-08-28T00:28:23.728Z,55.19
2022-08-28T00:31:27.231Z,55.38
2022-08-28T00:34:33.268Z,55.38
2022-08-28T00:37:35.823Z,54.92
2022-08-28T00:40:39.498Z,54.49
2022-08-28T00:43:44.324Z,54.70
2022-08-28T00:46:48.736Z,54.86
2022-08-28T00:49:52.920Z,54.67
2022-08-28T00:53:00.079Z,54.96
2022-08-28T00:56:05.179Z,54.92
2022-08-28T00:59:16.307Z,55.20
2022-08-28T01:02:18.945Z,55.45
2022-08-28T01:05:22.120Z,55.67
2022-08-28T01:08:24.429Z,55.80
2022-08-28T01:11:28.992Z,55.98
2022-08-28T01:14:32.387Z,55.94
2022-08-28T01:17:35.567Z,55.93
2022-08-28T01:20:41.842Z,56.02
2022-08-28T01:23:49.492Z,55.47
2022-08-28T01:26:51.758Z,55.40
2022-08-28T01:29:55.329Z,54.50
2022-08-28T01:32:58.139Z,54.65
2022-08-28T01:36:00.991Z,53.51
2022-08-28T01:39:05.664Z,53.38
2022-08-28T01:42:08.371Z,53.81
2022-08-28T01:45:14.542Z,53.86
2022-08-28T01:48:17.456Z,54.07
2022-08-28T01:51:24.393Z,54.33
2022-08-28T01:54:28.848Z,54.35
2022-08-28T01:57:31.149Z,54.56
2022-08-28T02:00:34.127Z,54.60
2022-08-28T02:03:36.718Z,54.69
2022-08-28T02:06:39.154Z,55.13
2022-08-28T02:09:41.887Z,55.46
2022-08-28T02:12:44.650Z,55.46
2022-08-28T02:15:47.299Z,55.64
2022-08-28T02:18:50.026Z,55.93
2022-08-28T02:21:52.520Z,56.00
2022-08-28T02:24:55.018Z,56.08
2022-08-28T02:27:57.596Z,56.34
2022-08-28T02:31:00.082Z,56.52
2022-08-28T02:34:02.943Z,56.61
2022-08-28T02:37:07.959Z,56.83
2022-08-28T02:40:14.301Z,57.04
2022-08-28T02:43:17.317Z,57.12
2022-08-28T02:46:20.007Z,57.12
2022-08-28T02:49:23.947Z,57.23
2022-08-28T02:52:27.053Z,57.21
2022-08-28T02:55:34.004Z,57.18
2022-08-28T02:58:36.825Z,57.24
2022-08-28T03:01:39.399Z,57.18
2022-08-28T03:04:42.033Z,57.19
2022-08-28T03:07:44.578Z,57.35
2022-08-28T03:10:47.064Z,57.41
2022-08-28T03:13:52.992Z,57.64
2022-08-28T03:16:55.834Z,57.40
2022-08-28T03:19:59.050Z,57.28
2022-08-28T03:23:20.454Z,57.20
2022-08-28T03:26:24.056Z,57.28
2022-08-28T03:29:29.171Z,57.27
2022-08-28T03:32:31.785Z,57.37
2022-08-28T03:35:34.278Z,57.23
2022-08-28T03:38:36.752Z,57.15
2022-08-28T03:41:39.859Z,57.04
2022-08-28T03:44:42.267Z,57.13
2022-08-28T03:47:44.722Z,57.37
2022-08-28T03:50:47.826Z,57.46
2022-08-28T03:53:51.765Z,57.74
2022-08-28T03:56:54.201Z,57.96
2022-08-28T03:59:56.770Z,58.44
2022-08-28T04:02:59.184Z,58.66
2022-08-28T04:06:01.987Z,58.83
2022-08-28T04:09:04.734Z,58.87
2022-08-28T04:12:07.730Z,59.03
2022-08-28T04:15:11.041Z,59.27
2022-08-28T04:18:13.893Z,59.69
2022-08-28T04:21:18.290Z,59.73
2022-08-28T04:24:20.798Z,59.75
2022-08-28T04:27:23.231Z,59.73
2022-08-28T04:30:25.740Z,59.67
2022-08-28T04:33:28.934Z,59.76
2022-08-28T04:36:33.595Z,59.85
2022-08-28T04:39:36.100Z,59.82
2022-08-28T04:42:39.996Z,59.74
2022-08-28T04:45:43.480Z,59.68
2022-08-28T04:48:46.020Z,59.87
2022-08-28T04:51:48.532Z,59.69
2022-08-28T04:54:51.052Z,59.55
2022-08-28T04:57:53.580Z,59.29
2022-08-28T05:00:56.552Z,59.19
2022-08-28T05:04:00.865Z,59.04
2022-08-28T05:07:03.526Z,58.81
2022-08-28T05:10:06.162Z,58.40
2022-08-28T05:13:09.665Z,58.55
2022-08-28T05:16:15.578Z,58.33
2022-08-28T05:19:19.416Z,58.16
2022-08-28T05:22:21.885Z,57.99
2022-08-28T05:25:24.383Z,57.70
2022-08-28T05:28:27.164Z,57.43
2022-08-28T05:31:30.789Z,56.90
2022-08-28T05:34:33.270Z,56.98
2022-08-28T05:37:35.809Z,56.91
2022-08-28T05:40:43.385Z,56.48
2022-08-28T05:43:45.885Z,55.77
2022-08-28T05:46:49.274Z,55.94
2022-08-28T05:49:52.529Z,55.83
2022-08-28T05:52:54.996Z,55.62
2022-08-28T05:55:57.491Z,55.48
2022-08-28T05:59:00.704Z,55.45
2022-08-28T06:02:05.575Z,55.66
2022-08-28T06:05:09.053Z,54.58
2022-08-28T06:08:15.811Z,54.46
2022-08-28T06:11:21.806Z,54.29
2022-08-28T06:14:27.126Z,54.08
2022-08-28T06:17:31.083Z,53.80
2022-08-28T06:20:37.376Z,53.45
2022-08-28T06:23:41.139Z,53.29
2022-08-28T06:26:43.720Z,52.82
2022-08-28T06:29:46.602Z,52.62
2022-08-28T06:32:48.796Z,52.44
2022-08-28T06:35:52.720Z,52.16
2022-08-28T06:38:55.642Z,51.78
2022-08-28T06:41:58.401Z,51.33
2022-08-28T06:45:01.011Z,50.11
2022-08-28T06:48:03.860Z,49.69
2022-08-28T06:51:07.164Z,49.35
2022-08-28T06:54:10.348Z,48.69
2022-08-28T06:57:12.595Z,48.00
2022-08-28T07:00:15.579Z,47.05
2022-08-28T07:03:18.060Z,46.13
2022-08-28T07:06:21.671Z,45.57
2022-08-28T07:09:24.391Z,43.88
2022-08-28T07:12:27.118Z,43.80
2022-08-28T07:15:29.435Z,43.11
2022-08-28T07:18:32.193Z,42.50
2022-08-28T07:21:38.650Z,41.67
2022-08-28T07:24:42.165Z,41.28
2022-08-28T07:27:44.377Z,40.66
2022-08-28T07:30:55.679Z,39.61
2022-08-28T07:33:58.261Z,38.97
2022-08-28T07:37:04.266Z,38.80
2022-08-28T07:40:10.051Z,38.95
2022-08-28T07:43:32.710Z,38.94
2022-08-28T07:46:35.483Z,38.68
2022-08-28T07:49:39.153Z,37.90
2022-08-28T07:52:41.403Z,37.62
2022-08-28T07:55:44.095Z,37.08
2022-08-28T07:58:46.748Z,36.38
2022-08-28T08:01:50.853Z,35.90
2022-08-28T08:04:53.658Z,35.49
2022-08-28T08:07:56.067Z,35.91
2022-08-28T08:11:00.286Z,37.03
2022-08-28T08:14:05.614Z,38.45
2022-08-28T08:17:08.787Z,37.48
2022-08-28T08:20:11.492Z,35.09
2022-08-28T08:23:14.068Z,34.17
2022-08-28T08:26:18.273Z,33.37
2022-08-28T08:29:21.102Z,32.38
2022-08-28T08:32:23.750Z,32.52
2022-08-28T08:35:26.343Z,31.50
2022-08-28T08:38:30.015Z,30.17
2022-08-28T08:41:34.952Z,29.95
2022-08-28T08:44:42.090Z,29.96
2022-08-28T08:47:50.064Z,28.93
2022-08-28T08:50:53.695Z,29.08
2022-08-28T08:54:08.611Z,28.12
2022-08-28T08:57:13.018Z,27.45
2022-08-28T09:00:16.167Z,26.89
2022-08-28T09:03:22.991Z,26.20
2022-08-28T09:06:44.719Z,25.49
2022-08-28T09:09:50.045Z,24.95
2022-08-28T09:12:56.579Z,23.18
2022-08-28T09:16:00.177Z,23.18
2022-08-28T09:19:03.049Z,22.56
2022-08-28T09:22:05.483Z,21.90
2022-08-28T09:25:09.398Z,21.63
2022-08-28T09:28:15.723Z,20.87
2022-08-28T09:31:33.537Z,19.64
2022-08-28T09:34:38.960Z,18.93
2022-08-28T09:37:42.855Z,18.44
2022-08-28T09:41:04.107Z,18.38
2022-08-28T09:44:06.676Z,17.42
2022-08-28T09:47:09.080Z,17.01
2022-08-28T09:50:29.731Z,17.23
2022-08-28T09:53:34.176Z,17.36
2022-08-28T09:56:39.355Z,17.34
2022-08-28T09:59:42.248Z,16.96
2022-08-28T10:02:58.234Z,17.29
2022-08-28T10:06:20.019Z,17.77
2022-08-28T10:09:28.456Z,18.39
2022-08-28T10:12:50.303Z,18.30
2022-08-28T10:15:52.556Z,19.64
2022-08-28T10:19:05.832Z,19.91
2022-08-28T10:22:08.283Z,19.72
2022-08-28T10:25:14.070Z,21.02
2022-08-28T10:28:25.561Z,21.41
2022-08-28T10:31:47.497Z,21.23
2022-08-28T10:34:49.858Z,21.90
2022-08-28T10:38:16.340Z,22.06
2022-08-28T10:41:25.090Z,22.00
2022-08-28T10:44:32.948Z,21.17
2022-08-28T10:47:38.325Z,21.12
2022-08-28T10:50:47.160Z,21.52
2022-08-28T10:53:55.545Z,21.81
2022-08-28T10:57:05.792Z,21.97
2022-08-28T11:00:13.785Z,21.73
2022-08-28T11:03:34.036Z,21.35
2022-08-28T11:06:41.698Z,20.65
2022-08-28T11:09:47.753Z,19.68
2022-08-28T11:12:51.828Z,18.67
2022-08-28T11:15:54.751Z,18.50
2022-08-28T11:19:14.408Z,18.08
2022-08-28T11:22:28.418Z,19.29
2022-08-28T11:25:45.406Z,20.28
2022-08-28T11:28:49.917Z,20.43
2022-08-28T11:32:12.072Z,20.37
2022-08-28T11:35:21.018Z,21.01
2022-08-28T11:38:41.897Z,20.63
2022-08-28T11:42:03.308Z,21.35
2022-08-28T11:45:07.271Z,20.25
2022-08-28T11:48:30.155Z,20.58
2022-08-28T11:51:35.349Z,20.32
2022-08-28T11:54:45.591Z,21.26
2022-08-28T12:01:09.590Z,22.69
2022-08-28T12:04:17.617Z,23.77
2022-08-28T12:07:22.029Z,24.67
2022-08-28T12:10:24.651Z,25.90
2022-08-28T12:13:45.664Z,26.21
2022-08-28T12:17:03.696Z,25.31
2022-08-28T12:20:18.557Z,24.45
2022-08-28T12:23:24.037Z,24.56
2022-08-28T12:26:32.025Z,23.36
2022-08-28T12:29:49.149Z,22.71
2022-08-28T12:32:56.831Z,22.01
2022-08-28T12:36:00.902Z,21.94
2022-08-28T12:39:03.574Z,22.42
2022-08-28T12:42:14.729Z,23.47
2022-08-28T12:45:27.933Z,23.57
2022-08-28T12:48:35.039Z,24.02
2022-08-28T12:51:37.698Z,24.50
2022-08-28T12:54:40.589Z,24.77
2022-08-28T12:57:46.851Z,24.78
2022-08-28T13:00:55.740Z,25.35
2022-08-28T13:04:01.363Z,26.01
2022-08-28T13:07:24.100Z,27.18
2022-08-28T13:10:31.832Z,27.74
2022-08-28T13:13:37.148Z,28.25
2022-08-28T13:16:41.757Z,28.68
2022-08-28T13:19:44.382Z,29.35
2022-08-28T13:22:50.862Z,29.72
2022-08-28T13:26:03.070Z,30.57
2022-08-28T13:29:35.210Z,30.20
2022-08-28T13:32:39.073Z,30.91
2022-08-28T13:35:42.129Z,29.85
2022-08-28T13:38:44.940Z,29.27
2022-08-28T13:41:49.225Z,28.92
2022-08-28T13:44:55.259Z,29.39
2022-08-28T13:47:57.686Z,28.94
2022-08-28T13:51:03.109Z,28.91
2022-08-28T13:54:07.574Z,28.60
2022-08-28T13:57:11.345Z,28.40
2022-08-28T14:00:14.190Z,28.21
2022-08-28T14:03:35.849Z,28.66
2022-08-28T14:06:38.546Z,29.10
2022-08-28T14:09:41.146Z,28.96
2022-08-28T14:12:46.748Z,29.36
2022-08-28T14:15:49.593Z,29.18
2022-08-28T14:18:52.892Z,29.45
2022-08-28T14:21:56.002Z,29.70
2022-08-28T14:24:58.451Z,29.76
2022-08-28T14:28:01.547Z,30.05
2022-08-28T14:31:05.164Z,30.16
2022-08-28T14:34:09.028Z,30.45
2022-08-28T14:37:11.707Z,30.59
2022-08-28T14:40:14.310Z,30.83
2022-08-28T14:43:16.897Z,30.91
2022-08-28T14:46:24.971Z,31.32
2022-08-28T14:49:28.279Z,31.79
2022-08-28T14:52:30.789Z,31.77
2022-08-28T14:55:38.413Z,32.37
2022-08-28T14:58:41.408Z,32.87
2022-08-28T15:01:44.970Z,32.95
2022-08-28T15:04:47.685Z,33.07
2022-08-28T15:07:50.126Z,33.42
2022-08-28T15:10:52.629Z,33.93
2022-08-28T15:13:55.591Z,34.30
2022-08-28T15:16:58.371Z,34.26
2022-08-28T15:20:01.165Z,34.60
2022-08-28T15:23:03.743Z,34.62
2022-08-28T15:26:06.185Z,34.79
2022-08-28T15:29:10.790Z,34.92
2022-08-28T15:32:13.301Z,35.19
2022-08-28T15:35:16.791Z,35.39
2022-08-28T15:38:19.259Z,35.80
2022-08-28T15:41:25.073Z,36.08
2022-08-28T15:44:28.155Z,36.32
2022-08-28T15:47:30.774Z,36.80
2022-08-28T15:50:33.213Z,36.95
2022-08-28T15:53:35.761Z,37.13
2022-08-28T15:56:38.639Z,37.46
2022-08-28T15:59:50.064Z,37.88
2022-08-28T16:02:59.756Z,38.37
2022-08-28T16:06:02.738Z,38.88
2022-08-28T16:09:06.155Z,39.22
2022-08-28T16:12:10.898Z,39.35
2022-08-28T16:15:14.106Z,39.98
2022-08-28T16:18:22.098Z,40.04
2022-08-28T16:21:28.036Z,40.20
2022-08-28T16:24:31.005Z,40.36
2022-08-28T16:27:34.001Z,40.50
2022-08-28T16:30:37.811Z,40.48
2022-08-28T16:33:46.594Z,40.65
2022-08-28T16:36:50.355Z,41.09
2022-08-28T16:39:54.622Z,41.45
2022-08-28T16:42:57.164Z,41.60
2022-08-28T16:45:59.801Z,41.88
2022-08-28T16:49:02.593Z,42.16
2022-08-28T16:52:05.215Z,42.27
2022-08-28T16:55:09.277Z,42.16
2022-08-28T16:58:16.742Z,42.69
2022-08-28T17:01:21.541Z,42.90
2022-08-28T17:04:26.825Z,43.00
2022-08-28T17:07:30.546Z,43.23
2022-08-28T17:10:34.782Z,43.30
2022-08-28T17:13:37.901Z,43.38
2022-08-28T17:16:40.635Z,43.48
2022-08-28T17:19:43.191Z,43.67
2022-08-28T17:22:45.680Z,43.66
2022-08-28T17:25:48.635Z,43.68
2022-08-28T17:28:51.842Z,43.87
2022-08-28T17:31:54.862Z,44.07
2022-08-28T17:34:57.514Z,44.17
2022-08-28T17:38:00.206Z,45.08
2022-08-28T17:41:06.315Z,46.51
2022-08-28T17:44:09.130Z,45.14
2022-08-28T17:47:12.070Z,46.52
2022-08-28T17:50:14.583Z,47.09
2022-08-28T17:53:18.070Z,46.75
2022-08-28T17:56:20.952Z,47.54
2022-08-28T17:59:38.479Z,47.74
2022-08-28T18:02:40.987Z,46.37
2022-08-28T18:05:43.767Z,46.47
2022-08-28T18:08:47.823Z,46.38
2022-08-28T18:11:51.822Z,47.16
2022-08-28T18:14:54.595Z,47.08
2022-08-28T18:17:57.934Z,47.15
2022-08-28T18:21:01.647Z,46.66
2022-08-28T18:24:04.947Z,46.53
2022-08-28T18:27:08.239Z,46.28
2022-08-28T18:30:11.264Z,46.12
2022-08-28T18:33:14.860Z,46.20
2022-08-28T18:36:17.784Z,46.13
2022-08-28T18:39:29.905Z,46.09
2022-08-28T18:42:32.678Z,46.13
2022-08-28T18:45:35.803Z,46.04
2022-08-28T18:48:38.474Z,46.12
2022-08-28T18:51:41.775Z,46.47
2022-08-28T18:54:45.251Z,46.63
2022-08-28T18:57:48.936Z,46.71
2022-08-28T19:00:54.436Z,46.80
2022-08-28T19:03:57.624Z,46.57
2022-08-28T19:07:00.173Z,46.72
2022-08-28T19:10:03.679Z,46.74
2022-08-28T19:13:07.139Z,46.78
2022-08-28T19:16:10.283Z,46.96
2022-08-28T19:19:13.002Z,46.95
2022-08-28T19:22:15.540Z,47.12
2022-08-28T19:25:27.998Z,47.22
2022-08-28T19:28:31.583Z,47.34
2022-08-28T19:31:34.161Z,47.48
2022-08-28T19:34:36.716Z,47.49
2022-08-28T19:37:42.588Z,47.51
2022-08-28T19:40:45.819Z,47.75
2022-08-28T19:43:48.925Z,47.82
2022-08-28T19:46:51.707Z,48.12
2022-08-28T19:49:55.054Z,48.19
2022-08-28T19:52:59.768Z,48.12
2022-08-28T19:56:03.064Z,48.29
2022-08-28T19:59:07.462Z,48.45
2022-08-28T20:02:10.489Z,48.54
2022-08-28T20:05:14.608Z,48.36
2022-08-28T20:08:17.965Z,48.42
2022-08-28T20:11:25.162Z,48.54
2022-08-28T20:14:28.046Z,48.63
2022-08-28T20:17:31.568Z,48.72
2022-08-28T20:20:34.122Z,48.76
2022-08-28T20:23:37.068Z,48.80
2022-08-28T20:26:39.881Z,48.93
2022-08-28T20:29:42.871Z,48.90
2022-08-28T20:32:45.507Z,49.05
2022-08-28T20:35:48.434Z,49.29
2022-08-28T20:38:51.059Z,49.56
2022-08-28T20:41:54.184Z,49.88
2022-08-28T20:44:57.045Z,50.18
2022-08-28T20:47:59.815Z,50.60
2022-08-28T20:51:02.321Z,50.80
2022-08-28T20:54:05.079Z,51.44
2022-08-28T20:57:09.314Z,51.75
2022-08-28T21:00:12.878Z,51.96
2022-08-28T21:03:15.691Z,52.23
2022-08-28T21:06:18.439Z,52.42
2022-08-28T21:09:22.956Z,52.60
2022-08-28T21:12:43.923Z,52.88
2022-08-28T21:15:46.929Z,53.23
2022-08-28T21:19:14.458Z,53.64
2022-08-28T21:22:13.104Z,53.81
2022-08-28T21:25:20.406Z,53.97
2022-08-28T21:28:22.756Z,54.14
2022-08-28T21:31:25.594Z,54.34
2022-08-28T21:34:27.869Z,54.52
2022-08-28T21:37:31.219Z,54.61
2022-08-28T21:40:35.646Z,54.72
2022-08-28T21:43:38.935Z,54.93
2022-08-28T21:46:42.068Z,55.08
2022-08-28T21:49:47.428Z,55.23
2022-08-28T21:52:49.810Z,55.43
2022-08-28T21:55:53.918Z,55.50
2022-08-28T21:58:56.604Z,55.63
2022-08-28T22:01:59.509Z,55.60
2022-08-28T22:05:02.042Z,55.54
2022-08-28T22:08:05.106Z,55.58
2022-08-28T22:11:08.413Z,55.73
2022-08-28T22:14:11.121Z,55.93
2022-08-28T22:17:15.095Z,56.09
2022-08-28T22:20:17.643Z,56.21
2022-08-28T22:23:20.468Z,56.46
2022-08-28T22:26:22.887Z,56.77
2022-08-28T22:29:25.639Z,56.98
2022-08-28T22:32:28.127Z,57.28
2022-08-28T22:35:30.730Z,57.47
2022-08-28T22:38:33.630Z,57.68
2022-08-28T22:41:37.436Z,57.79
2022-08-28T22:44:39.957Z,58.03
2022-08-28T22:47:42.476Z,58.31
2022-08-28T22:50:45.925Z,58.60
2022-08-28T22:53:48.718Z,58.85
2022-08-28T22:56:51.277Z,58.96
2022-08-28T22:59:54.011Z,59.08
2022-08-28T23:02:57.076Z,59.06
2022-08-28T23:05:59.628Z,59.15
2022-08-28T23:09:02.071Z,59.27
2022-08-28T23:12:05.193Z,59.40
2022-08-28T23:15:09.951Z,59.46
2022-08-28T23:18:12.774Z,59.50
2022-08-28T23:21:15.687Z,59.67
2022-08-28T23:24:21.572Z,59.76
2022-08-28T23:27:39.473Z,59.85
2022-08-28T23:30:48.302Z,59.96
2022-08-28T23:33:51.269Z,60.03
2022-08-28T23:36:54.141Z,60.01
2022-08-28T23:39:56.614Z,59.96
2022-08-28T23:43:00.610Z,60.00
2022-08-28T23:46:03.451Z,59.93
2022-08-28T23:49:07.414Z,60.24
2022-08-28T23:52:10.221Z,60.24
2022-08-28T23:55:13.782Z,60.40
2022-08-28T23:58:16.677Z,60.43
